ROMMA est une association bénévole à but non lucratif. Votre soutien est indispensable : ADHERER à ROMMA ou FAIRE un DON

Briord - (01, Ain)

Bugey (281 m)   Longitude: 05° 29' 13" E   Latitude: 45° 46' 37" N Station partenaire n°15
 

Détail journalier du     <<     >>

Température Precipitation Humidité Pression Vent Dir Rafale Dir. rafale Ensol.
Heure (°C) (mm) (%) (hPa) (km/h) (km/h) (min)
01:00 -2.2094103400---0
02:00 -1.7094103502NO0
03:00 -1.6094103506NO0
04:00 -1.1094103506NO0
05:00 -1.1094103405N0
06:00 0.4095103408NO0
07:00 0.60951034013ONO0
08:00 0.8095103402ONO0
09:00 1.70.29410343ONO21ONO0
10:00 2.209410357NO19NO0
11:00 2.609310356NO18NO0
12:00 3.1092103510NO21NO0
13:00 3.109210349NO21NO0
14:00 3.1092103411NO26NO0
15:00 3.1091103412NO23NO0
16:00 2.909110349NO21NO0
17:00 2.709110347NO18NO0
18:00 2.609110358NO19NO0
19:00 2.609110358NO21NO0
20:00 2.709010359NNO21NNO0
21:00 2.708910359NNO24NNO0
22:00 2.409110358NNO23N0
23:00 2.3091103511NNO26NNO0
minuit 2.2090103513NNO29NO0

Graphique du 06-01-2019

 

Serveur OMMA